Tri Cities Regional Tn Va Airport
KTRI : now visible

Airfield :











YOU CAN JOIN US ON...

 
LOGIN :

Register | Disclaimer

   EN    FR    IT 

 









Legend :    VFR   Marginal VFR   IFR   Intensive IFR   Very Intensive IFR
Visi :
Ceiling :
>= 8 km
>= 3000ft
5 to 8 km
1000 to 3000 ft
1500m to 5 km
500 to 1000 ft
800 to 1500m
200 to 500 ft
< 800m
< 200 ft
Symbols :   Thunderstorms  Fog  Heavy snow  Heavy precipitations  Wind > 20 kt






- Airport Elevation : 1519 ft
- IATA code : TRI


KTRI - Tri Cities Regional Tn Va

CURRENT METAR :
  • 131653Z 00000KT 10SM SCT250 M01/M09 A3031 RMK AO2 SLP270 T10111089

EXPIRED METARs :
  • 131553Z 06004KT 10SM SCT250 M03/M09 A3034 RMK AO2 SLP280 T10281094
  • 131453Z VRB05KT 10SM SCT250 M04/M10 A3036 RMK AO2 SLP288 T10391100 53006

TAF KTRI
Valid from the 13 at 12:00 until the 14 at 12:00 UTC


131121Z 1312/1412 VRB04KT P6SM SKC
FM140000 00000KT P6SM SCT250



MET'MAP, your aeronautical weather chart ! - Copyright ORBIFLY December 2007 - Disclaimer

ORBIFLY MET'MAP TEAM :

Programming & Development : Alexandra Zaïnal
Concept & Development : Baudouin d'Aumeries
Co-Development & Prog : Marc-Olivier Méhu
Technical & hardware support : Manuel Goepfert

Contact : metmap@orbifly.com




SOURCES & CREDITS :

   NOAA       Earth
Advisory